Time;durP1;ratioP1;P1;durP2;ratioP2;P2;SDS_P1;SDS_P2;PMS_P1;PMS_P2;Temp;Humidity;BMP_temperature;BMP_pressure;BME280_temperature;BME280_humidity;BME280_pressure;Samples;Min_cycle;Max_cycle;Signal;HPM_P1;HPM_P2
2023/07/02 00:01:43;;;;;;;4.30;2.30;;;;;;;20.05;94.56;99088.27;177563;1262;45955;-88
2023/07/02 00:05:47;;;;;;;3.40;2.60;;;;;;;20.05;95.21;99091.71;177613;1260;59533;-89
2023/07/02 00:09:50;;;;;;;5.70;1.60;;;;;;;20.09;95.41;99094.05;177802;1260;46101;-89
2023/07/02 00:13:53;;;;;;;4.60;2.30;;;;;;;20.16;95.68;99097.47;177531;1260;46186;-89
2023/07/02 00:17:57;;;;;;;3.30;1.80;;;;;;;20.18;95.80;99099.73;177480;1260;46020;-87
2023/07/02 00:22:00;;;;;;;3.10;1.90;;;;;;;20.16;95.83;99096.30;177701;1258;45896;-89
2023/07/02 00:26:04;;;;;;;4.70;2.50;;;;;;;20.17;96.51;99100.83;177649;1257;58248;-88
2023/07/02 00:30:08;;;;;;;5.30;2.60;;;;;;;20.16;96.88;99098.92;177851;1260;45970;-88
2023/07/02 00:34:12;;;;;;;9.10;3.10;;;;;;;20.14;97.52;99096.18;177534;1260;45705;-89
2023/07/02 00:38:15;;;;;;;9.00;4.10;;;;;;;20.14;98.03;99095.85;177489;1260;46415;-88
2023/07/02 00:42:19;;;;;;;3.70;3.00;;;;;;;20.16;98.01;99092.06;177327;1263;46045;-89
2023/07/02 00:46:25;;;;;;;2.40;1.40;;;;;;;20.14;98.53;99093.79;178034;1259;58211;-89
2023/07/02 00:50:29;;;;;;;2.10;1.90;;;;;;;20.04;99.27;99091.94;177644;1261;46198;-90
2023/07/02 00:54:33;;;;;;;4.60;2.50;;;;;;;19.97;99.82;99092.14;178284;1259;46258;-89
2023/07/02 00:58:40;;;;;;;3.50;1.40;;;;;;;19.97;100.00;99092.80;178457;1259;46364;-89
2023/07/02 01:02:58;;;;;;;1.20;1.00;;;;;;;19.96;100.00;99088.83;178509;1257;46537;-90
2023/07/02 01:07:08;;;;;;;2.90;1.80;;;;;;;19.95;100.00;99089.66;178234;1261;59683;-89
2023/07/02 01:11:12;;;;;;;1.10;0.80;;;;;;;19.92;100.00;99084.90;177988;1260;46120;-89
2023/07/02 01:15:16;;;;;;;1.00;0.80;;;;;;;19.93;100.00;99087.06;178096;1260;45863;-90
2023/07/02 01:19:44;;;;;;;2.10;1.00;;;;;;;19.95;100.00;99088.13;178404;1260;44776;-90
2023/07/02 01:23:47;;;;;;;2.30;1.20;;;;;;;19.90;100.00;99090.41;178381;1260;46103;-89
2023/07/02 01:27:55;;;;;;;2.20;0.70;;;;;;;19.78;100.00;99090.97;178331;1258;57927;-90
2023/07/02 01:31:59;;;;;;;1.80;0.80;;;;;;;19.72;100.00;99093.37;177774;1259;44703;-86
2023/07/02 01:36:03;;;;;;;0.70;0.20;;;;;;;19.71;100.00;99102.74;177745;1263;46086;-86
2023/07/02 01:40:10;;;;;;;1.30;0.50;;;;;;;19.69;100.00;99105.16;177678;1259;45997;-86
2023/07/02 01:44:14;;;;;;;2.20;0.30;;;;;;;19.73;100.00;99104.32;177713;1259;45999;-86
2023/07/02 01:48:17;;;;;;;1.10;0.50;;;;;;;19.63;100.00;99103.70;177456;1259;59344;-86
2023/07/02 01:52:20;;;;;;;10.20;1.10;;;;;;;19.61;100.00;99101.63;177447;1257;46121;-86
2023/07/02 01:56:24;;;;;;;0.40;0.30;;;;;;;19.56;100.00;99097.01;177416;1260;46086;-87
2023/07/02 02:00:27;;;;;;;2.30;0.50;;;;;;;19.55;100.00;99095.77;177810;1259;45184;-85
2023/07/02 02:04:31;;;;;;;7.50;1.70;;;;;;;19.53;100.00;99091.33;177372;1263;46191;-86
2023/07/02 02:08:35;;;;;;;2.70;1.30;;;;;;;19.44;100.00;99097.63;177838;1260;59458;-86
2023/07/02 02:12:38;;;;;;;6.60;2.60;;;;;;;19.41;100.00;99093.37;177746;1260;46127;-87
2023/07/02 02:16:45;;;;;;;1.70;1.60;;;;;;;19.49;100.00;99095.51;177533;1260;46023;-87
2023/07/02 02:20:49;;;;;;;1.40;0.80;;;;;;;19.50;100.00;99095.70;177841;1259;46287;-89
2023/07/02 02:24:53;;;;;;;0.70;0.40;;;;;;;19.59;100.00;99092.76;177012;1260;45139;-88
2023/07/02 02:28:56;;;;;;;1.20;0.60;;;;;;;19.63;100.00;99090.71;177300;1260;59910;-90
2023/07/02 02:33:00;;;;;;;0.80;0.80;;;;;;;19.64;100.00;99092.70;177617;1259;44123;-88
2023/07/02 02:37:03;;;;;;;7.80;0.70;;;;;;;19.66;100.00;99090.88;177684;1262;46012;-87
2023/07/02 02:41:08;;;;;;;0.90;0.90;;;;;;;19.68;100.00;99089.23;177082;1260;46172;-88
2023/07/02 02:45:11;;;;;;;3.80;1.00;;;;;;;19.68;100.00;99085.50;177263;1260;45975;-89
2023/07/02 02:49:15;;;;;;;2.00;0.80;;;;;;;19.67;100.00;99084.73;177493;1260;58317;-88
2023/07/02 02:53:18;;;;;;;1.90;1.00;;;;;;;19.65;100.00;99087.13;177767;1260;46013;-88
2023/07/02 02:57:22;;;;;;;2.30;0.50;;;;;;;19.65;100.00;99085.81;178202;1259;46214;-90
2023/07/02 03:01:28;;;;;;;1.30;0.80;;;;;;;19.60;100.00;99088.20;178166;1259;46031;-88
2023/07/02 03:05:32;;;;;;;4.50;1.60;;;;;;;19.60;100.00;99085.80;178038;1258;46028;-89
2023/07/02 03:09:36;;;;;;;1.60;1.40;;;;;;;19.57;100.00;99085.55;178492;1259;58174;-89
2023/07/02 03:13:40;;;;;;;1.30;1.20;;;;;;;19.56;100.00;99087.39;178409;1259;46205;-88
2023/07/02 03:17:44;;;;;;;2.60;1.30;;;;;;;19.52;100.00;99087.98;178416;1259;44295;-89
2023/07/02 03:21:47;;;;;;;1.40;1.00;;;;;;;19.56;100.00;99088.80;178668;1259;46065;-88
2023/07/02 03:25:51;;;;;;;2.00;1.30;;;;;;;19.59;100.00;99090.19;178908;1261;45146;-89
2023/07/02 03:29:55;;;;;;;2.90;1.40;;;;;;;19.59;100.00;99093.05;179135;1261;60399;-88
2023/07/02 03:34:08;;;;;;;1.40;1.30;;;;;;;19.58;100.00;99098.49;178620;1259;46210;-88
2023/07/02 03:38:12;;;;;;;2.40;0.80;;;;;;;19.61;100.00;99106.61;178288;1260;45964;-86
2023/07/02 03:42:16;;;;;;;2.10;1.30;;;;;;;19.66;100.00;99113.73;177764;1260;46080;-88
2023/07/02 03:46:20;;;;;;;2.50;1.80;;;;;;;19.68;100.00;99118.45;177671;1259;46109;-88
2023/07/02 03:50:23;;;;;;;2.90;2.10;;;;;;;19.66;100.00;99121.58;178163;1259;59574;-88
2023/07/02 03:54:27;;;;;;;2.80;1.50;;;;;;;19.67;100.00;99126.47;177855;1259;47933;-88
2023/07/02 03:58:31;;;;;;;1.80;1.60;;;;;;;19.62;100.00;99130.38;177753;1258;45991;-86
2023/07/02 04:02:34;;;;;;;2.60;1.00;;;;;;;19.60;100.00;99131.27;177923;1260;47185;-88
2023/07/02 04:06:39;;;;;;;1.70;1.30;;;;;;;19.70;100.00;99135.96;177716;1258;45986;-89
2023/07/02 04:10:42;;;;;;;8.90;2.00;;;;;;;19.73;100.00;99145.65;178574;1260;58297;-89
2023/07/02 04:14:46;;;;;;;1.90;1.30;;;;;;;19.78;100.00;99146.84;177888;1258;46109;-90
2023/07/02 04:18:49;;;;;;;1.60;1.40;;;;;;;19.89;100.00;99147.75;178032;1260;45976;-87
2023/07/02 04:22:53;;;;;;;10.20;2.20;;;;;;;19.84;100.00;99151.17;177572;1258;46073;-86
2023/07/02 04:26:56;;;;;;;4.30;2.30;;;;;;;19.92;100.00;99152.85;177181;1260;46101;-87
2023/07/02 04:31:20;;;;;;;2.90;1.70;;;;;;;19.98;100.00;99158.18;177568;1260;58261;-87
2023/07/02 04:35:23;;;;;;;2.40;1.30;;;;;;;19.96;100.00;99161.73;177523;1259;44575;-88
2023/07/02 04:39:27;;;;;;;2.20;1.70;;;;;;;19.98;100.00;99161.39;178245;1259;44408;-89
2023/07/02 04:43:31;;;;;;;4.90;2.40;;;;;;;20.00;100.00;99159.92;177518;1260;45952;-89
2023/07/02 04:47:35;;;;;;;4.20;2.40;;;;;;;20.00;100.00;99170.46;177528;1257;45993;-88
2023/07/02 04:51:40;;;;;;;4.30;1.90;;;;;;;20.02;100.00;99171.45;177929;1259;59423;-89
2023/07/02 04:55:44;;;;;;;1.30;1.10;;;;;;;20.05;100.00;99173.64;178418;1259;46090;-88
2023/07/02 04:59:47;;;;;;;1.80;1.10;;;;;;;20.11;100.00;99174.36;178755;1262;46079;-91
2023/07/02 05:03:51;;;;;;;3.80;1.60;;;;;;;20.16;100.00;99175.08;178813;1259;46038;-87
2023/07/02 05:07:54;;;;;;;3.40;2.10;;;;;;;20.17;100.00;99175.70;179141;1260;46030;-90
2023/07/02 05:11:58;;;;;;;3.00;1.80;;;;;;;20.25;100.00;99173.54;178872;1259;58918;-88
2023/07/02 05:16:02;;;;;;;2.20;1.30;;;;;;;20.30;100.00;99184.67;177899;1259;46115;-88
2023/07/02 05:20:07;;;;;;;1.70;1.10;;;;;;;20.32;100.00;99182.26;178167;1262;44825;-87
2023/07/02 05:24:10;;;;;;;2.30;1.70;;;;;;;20.44;100.00;99182.73;177855;1259;45976;-88
2023/07/02 05:28:14;;;;;;;1.60;1.10;;;;;;;20.55;100.00;99188.51;178311;1259;45129;-89
2023/07/02 05:32:18;;;;;;;1.30;1.20;;;;;;;20.64;100.00;99196.55;178718;1259;58579;-88
2023/07/02 05:36:22;;;;;;;1.90;1.30;;;;;;;20.64;100.00;99199.63;178530;1259;46568;-90
2023/07/02 05:40:26;;;;;;;2.60;1.60;;;;;;;20.50;100.00;99208.41;179141;1258;45916;-89
2023/07/02 05:44:30;;;;;;;3.20;2.30;;;;;;;20.23;100.00;99218.41;178294;1258;44071;-89
2023/07/02 05:48:34;;;;;;;2.40;2.20;;;;;;;19.99;100.00;99230.59;178445;1259;44826;-91
2023/07/02 05:52:37;;;;;;;2.40;1.70;;;;;;;19.67;100.00;99241.64;178284;1259;59485;-87
2023/07/02 05:56:41;;;;;;;2.10;2.00;;;;;;;19.55;100.00;99241.07;178364;1258;46110;-89
2023/07/02 06:00:49;;;;;;;3.90;2.00;;;;;;;19.41;100.00;99233.08;178031;1258;45954;-90
2023/07/02 06:04:53;;;;;;;2.30;2.10;;;;;;;19.44;100.00;99229.27;178205;1259;46070;-88
2023/07/02 06:08:57;;;;;;;2.20;2.10;;;;;;;19.58;100.00;99234.94;177864;1260;46111;-89
2023/07/02 06:13:00;;;;;;;2.00;1.40;;;;;;;19.59;100.00;99237.25;177453;1260;60481;-88
2023/07/02 06:17:06;;;;;;;1.70;1.60;;;;;;;19.63;100.00;99238.33;178028;1260;45946;-89
2023/07/02 06:21:10;;;;;;;1.70;1.50;;;;;;;19.76;100.00;99234.55;178154;1260;46022;-89
2023/07/02 06:25:13;;;;;;;4.00;1.50;;;;;;;19.91;100.00;99237.06;177635;1260;45993;-88
2023/07/02 06:29:18;;;;;;;3.70;1.50;;;;;;;20.05;100.00;99236.22;178883;1259;46034;-90
2023/07/02 06:33:27;;;;;;;3.60;1.50;;;;;;;20.37;100.00;99227.85;179404;1262;60522;-89
2023/07/02 06:37:32;;;;;;;3.10;1.40;;;;;;;20.82;100.00;99223.38;179748;1258;44718;-91
2023/07/02 06:41:37;;;;;;;2.60;1.60;;;;;;;21.14;100.00;99222.44;179435;1262;45780;-89
2023/07/02 06:45:41;;;;;;;1.90;1.40;;;;;;;21.34;100.00;99232.16;179019;1259;44601;-91
2023/07/02 06:49:45;;;;;;;8.00;1.40;;;;;;;21.35;100.00;99234.73;179239;1260;44495;-90
2023/07/02 06:58:11;;;;;;;2.00;1.90;;;;;;;21.01;100.00;99241.25;172094;1259;45943;-60
2023/07/02 07:02:41;;;;;;;4.60;2.70;;;;;;;20.80;100.00;99245.65;180479;1259;45973;-60
2023/07/02 07:06:45;;;;;;;1.90;1.70;;;;;;;20.60;100.00;99249.77;180801;1259;43792;-59
2023/07/02 07:10:50;;;;;;;3.00;2.60;;;;;;;20.56;100.00;99255.51;180739;1259;43456;-58
2023/07/02 07:15:26;;;;;;;2.70;2.30;;;;;;;20.59;100.00;99262.05;180752;1259;60160;-59
2023/07/02 07:19:29;;;;;;;1.90;1.70;;;;;;;20.63;100.00;99265.27;181074;1260;44587;-59
2023/07/02 07:23:33;;;;;;;1.60;1.50;;;;;;;20.52;100.00;99270.64;180647;1259;43588;-58
2023/07/02 07:27:38;;;;;;;;;;;;;;;20.36;100.00;99269.47;180638;1260;44579;-59
2023/07/02 07:32:33;;;;;;;2.70;2.10;;;;;;;20.30;100.00;99268.56;180700;1259;43730;-60
2023/07/02 07:36:37;;;;;;;5.10;2.10;;;;;;;20.21;100.00;99262.86;181308;1263;60876;-59
2023/07/02 07:40:49;;;;;;;1.90;1.40;;;;;;;20.20;100.00;99260.74;181291;1263;43095;-59
2023/07/02 07:44:52;;;;;;;2.40;1.90;;;;;;;20.31;100.00;99271.59;181266;1263;43705;-60
2023/07/02 07:48:58;;;;;;;4.20;2.40;;;;;;;20.32;100.00;99275.48;181271;1263;43181;-60
2023/07/02 07:53:01;;;;;;;1.60;1.40;;;;;;;20.32;100.00;99276.18;181301;1263;43696;-59
2023/07/02 07:57:06;;;;;;;2.60;2.10;;;;;;;20.28;100.00;99267.31;181300;1264;58054;-59
2023/07/02 08:01:10;;;;;;;3.00;2.30;;;;;;;20.29;100.00;99276.70;180982;1267;43454;-58
2023/07/02 08:05:14;;;;;;;1.90;1.80;;;;;;;20.29;100.00;99280.94;180955;1268;43667;-60
2023/07/02 08:09:17;;;;;;;2.70;2.00;;;;;;;20.31;100.00;99298.55;180946;1267;43198;-59
2023/07/02 08:13:21;;;;;;;1.40;1.30;;;;;;;20.35;100.00;99306.63;180863;1270;43765;-60
2023/07/02 08:17:24;;;;;;;2.70;1.90;;;;;;;20.48;100.00;99295.69;180860;1272;59602;-58
2023/07/02 08:21:28;;;;;;;3.00;2.20;;;;;;;20.64;100.00;99301.38;180366;1276;43849;-60
2023/07/02 08:25:31;;;;;;;2.90;2.40;;;;;;;20.79;100.00;99297.93;180028;1276;43016;-59
2023/07/02 08:29:34;;;;;;;3.20;2.30;;;;;;;20.92;100.00;99304.48;179908;1280;43394;-59
2023/07/02 08:37:34;;;;;;;2.00;1.20;;;;;;;21.32;100.00;99305.36;174557;1294;567693;-87
2023/07/02 08:41:49;;;;;;;5.50;2.10;;;;;;;21.51;100.00;99310.45;179273;1259;57947;-89
2023/07/02 08:45:57;;;;;;;3.10;2.00;;;;;;;21.78;100.00;99307.85;180726;1258;46586;-88
2023/07/02 08:50:03;;;;;;;2.20;1.50;;;;;;;21.93;99.52;99308.33;179350;1257;203991;-88
2023/07/02 08:54:08;;;;;;;;;;;;;;;21.93;97.74;99315.78;180085;1256;45282;-91
2023/07/02 08:58:19;;;;;;;2.00;1.90;;;;;;;21.95;97.19;99318.02;180514;1259;94836;-58
2023/07/02 09:02:33;;;;;;;2.20;1.70;;;;;;;21.94;95.51;99318.89;180602;1259;59245;-58
2023/07/02 09:06:43;;;;;;;1.80;1.70;;;;;;;22.24;96.98;99322.10;181367;1254;44564;-59
2023/07/02 09:10:47;;;;;;;1.40;1.30;;;;;;;22.51;93.57;99324.67;181275;1254;45979;-59
2023/07/02 09:15:25;;;;;;;1.70;1.60;;;;;;;22.71;88.05;99317.37;181146;1254;43497;-58
2023/07/02 09:19:28;;;;;;;2.70;2.00;;;;;;;22.92;88.24;99319.96;181260;1255;43787;-58
2023/07/02 09:23:59;;;;;;;2.10;1.90;;;;;;;22.88;85.33;99313.80;181177;1255;59808;-59
2023/07/02 09:28:21;;;;;;;3.00;1.60;;;;;;;22.91;86.05;99317.08;181267;1256;45139;-60
2023/07/02 09:32:29;;;;;;;1.80;1.60;;;;;;;23.03;85.22;99318.45;181363;1254;43684;-60
2023/07/02 09:36:33;;;;;;;1.60;1.30;;;;;;;23.15;84.06;99317.47;181157;1254;43976;-59
2023/07/02 09:40:51;;;;;;;2.50;1.70;;;;;;;23.15;82.87;99316.27;181121;1254;43830;-59
2023/07/02 09:45:00;;;;;;;6.00;1.80;;;;;;;23.02;82.11;99312.75;181110;1255;58872;-59
2023/07/02 09:50:01;;;;;;;1.50;1.30;;;;;;;23.00;85.32;99313.33;181035;1254;45052;-58
2023/07/02 09:54:08;;;;;;;1.50;1.30;;;;;;;23.07;83.62;99314.55;181219;1255;44660;-59
2023/07/02 09:58:12;;;;;;;1.60;1.30;;;;;;;23.22;83.68;99313.04;181361;1253;43890;-59
2023/07/02 10:03:11;;;;;;;4.90;2.20;;;;;;;23.39;82.53;99304.77;181189;1253;44615;-60
2023/07/02 10:07:30;;;;;;;3.50;1.90;;;;;;;23.44;78.20;99306.40;181243;1256;58490;-60
2023/07/02 10:11:35;;;;;;;7.10;1.90;;;;;;;23.52;78.73;99307.98;181413;1253;44884;-60
2023/07/02 10:15:39;;;;;;;2.10;1.70;;;;;;;23.71;79.81;99305.35;181235;1255;43980;-60
2023/07/02 10:20:12;;;;;;;1.80;1.40;;;;;;;23.95;78.94;99302.14;181284;1258;44995;-60
2023/07/02 10:24:17;;;;;;;4.10;2.00;;;;;;;24.17;79.26;99300.29;181747;1251;84555;-89
2023/07/02 10:28:24;;;;;;;2.50;1.60;;;;;;;24.23;77.24;99297.31;180964;1254;60129;-90
2023/07/02 10:32:28;;;;;;;1.20;1.10;;;;;;;24.15;75.61;99295.40;180758;1254;44125;-89
2023/07/02 10:36:32;;;;;;;1.80;1.70;;;;;;;24.37;79.99;99290.08;179956;1257;46523;-89
2023/07/02 10:40:36;;;;;;;4.40;1.20;;;;;;;24.53;74.31;99287.84;179662;1254;46005;-89
2023/07/02 10:44:51;;;;;;;1.40;1.20;;;;;;;24.77;74.88;99288.73;180126;1254;46083;-89
2023/07/02 10:48:57;;;;;;;1.70;1.60;;;;;;;24.84;73.84;99286.38;179876;1254;59741;-89
2023/07/02 10:53:02;;;;;;;3.00;1.90;;;;;;;24.90;73.27;99279.29;180255;1254;46021;-89
2023/07/02 10:57:08;;;;;;;3.50;1.70;;;;;;;24.87;70.02;99276.09;179535;1254;46009;-89
2023/07/02 11:01:12;;;;;;;4.80;1.70;;;;;;;24.89;67.48;99268.72;180102;1254;46023;-89
2023/07/02 11:05:17;;;;;;;1.70;1.50;;;;;;;24.84;69.32;99278.69;179310;1257;46089;-90
2023/07/02 11:09:22;;;;;;;2.10;1.70;;;;;;;24.85;69.04;99275.05;180092;1254;59680;-91
2023/07/02 11:13:31;;;;;;;4.10;1.30;;;;;;;25.08;68.75;99276.82;179701;1253;46023;-90
2023/07/02 11:17:36;;;;;;;4.00;2.10;;;;;;;25.21;68.72;99263.53;179630;1257;47309;-90
2023/07/02 11:21:51;;;;;;;2.50;1.70;;;;;;;25.42;67.75;99264.19;179825;1254;45021;-88
2023/07/02 11:26:02;;;;;;;1.70;1.40;;;;;;;25.58;67.46;99255.95;179354;1254;46136;-89
2023/07/02 11:30:07;;;;;;;7.80;1.60;;;;;;;25.54;66.64;99259.58;179729;1252;58260;-86
2023/07/02 11:34:18;;;;;;;5.50;2.00;;;;;;;25.55;65.37;99261.44;180499;1255;46027;-87
2023/07/02 11:38:23;;;;;;;4.70;2.00;;;;;;;25.25;65.04;99263.04;181009;1254;44192;-87
2023/07/02 11:42:35;;;;;;;2.60;1.90;;;;;;;24.93;65.62;99272.81;180339;1253;44162;-88
2023/07/02 11:46:39;;;;;;;2.00;1.20;;;;;;;24.66;66.74;99269.16;179971;1254;45174;-88
2023/07/02 11:50:43;;;;;;;3.90;1.90;;;;;;;24.59;66.52;99279.09;181728;1253;59211;-82
2023/07/02 11:54:50;;;;;;;20.60;2.30;;;;;;;24.63;66.78;99273.94;181849;1252;96414;-58
2023/07/02 11:58:58;;;;;;;3.50;0.90;;;;;;;24.94;65.85;99270.50;181574;1251;98070;-59
2023/07/02 12:03:02;;;;;;;1.70;1.40;;;;;;;25.06;62.40;99276.50;179422;1253;96431;-61
2023/07/02 12:07:31;;;;;;;1.50;1.40;;;;;;;25.27;61.55;99263.23;181803;1252;44705;-60
2023/07/02 12:11:35;;;;;;;3.30;1.20;;;;;;;25.44;61.95;99273.46;180037;1261;58234;-90
2023/07/02 12:15:39;;;;;;;5.60;1.50;;;;;;;25.33;57.41;99271.17;179640;1262;46236;-88
2023/07/02 12:19:43;;;;;;;3.20;1.60;;;;;;;25.40;57.30;99274.77;179930;1259;44342;-89
2023/07/02 12:23:47;;;;;;;2.20;0.80;;;;;;;25.70;55.88;99278.45;179340;1258;45982;-89
2023/07/02 12:27:51;;;;;;;2.60;1.80;;;;;;;25.99;55.78;99278.73;179342;1258;52485;-90
2023/07/02 12:31:55;;;;;;;4.50;1.70;;;;;;;26.09;55.43;99281.61;180027;1258;60044;-89
2023/07/02 12:35:59;;;;;;;4.00;0.90;;;;;;;25.81;54.37;99287.30;180063;1258;44692;-90
2023/07/02 12:40:04;;;;;;;1.10;1.00;;;;;;;25.66;55.55;99289.77;179786;1259;46572;-89
2023/07/02 12:44:08;;;;;;;5.20;2.30;;;;;;;25.52;56.37;99285.69;179889;1258;44782;-89
2023/07/02 12:48:12;;;;;;;1.70;1.20;;;;;;;25.56;55.79;99298.39;179339;1259;46040;-88
2023/07/02 12:52:16;;;;;;;3.40;2.20;;;;;;;25.46;56.74;99301.55;179157;1257;58373;-89
2023/07/02 12:56:19;;;;;;;1.70;1.00;;;;;;;25.41;56.20;99302.10;179813;1257;45986;-89
2023/07/02 13:00:24;;;;;;;2.30;1.10;;;;;;;25.16;54.22;99320.91;180227;1257;44122;-89
2023/07/02 13:04:28;;;;;;;2.70;1.60;;;;;;;24.95;55.04;99323.55;179510;1257;46000;-90
2023/07/02 13:08:32;;;;;;;2.40;1.60;;;;;;;25.07;56.63;99329.97;179102;1259;44162;-89
2023/07/02 13:12:37;;;;;;;2.90;2.00;;;;;;;24.98;55.48;99327.08;179899;1259;59135;-87
2023/07/02 13:16:41;;;;;;;2.50;1.20;;;;;;;24.90;55.99;99339.63;181279;1256;90200;-61
2023/07/02 13:20:50;;;;;;;1.60;1.50;;;;;;;24.76;56.04;99340.27;180897;1256;83981;-90
2023/07/02 13:24:54;;;;;;;3.50;1.60;;;;;;;24.65;55.50;99340.27;179421;1256;44718;-90
2023/07/02 13:29:01;;;;;;;1.50;1.40;;;;;;;24.74;57.27;99354.64;179180;1257;45605;-91
2023/07/02 13:33:06;;;;;;;1.60;1.50;;;;;;;24.75;56.15;99360.73;179166;1256;60540;-89
2023/07/02 13:37:09;;;;;;;2.40;1.70;;;;;;;24.52;55.97;99363.21;179060;1256;46213;-89
2023/07/02 13:41:14;;;;;;;4.60;1.80;;;;;;;24.41;56.61;99367.29;178809;1257;46043;-89
2023/07/02 13:45:18;;;;;;;1.50;1.40;;;;;;;24.48;57.98;99365.00;178763;1256;46092;-88
2023/07/02 13:49:21;;;;;;;3.00;1.60;;;;;;;24.89;56.52;99354.66;179000;1259;46041;-89
2023/07/02 13:53:25;;;;;;;1.80;1.20;;;;;;;24.96;55.32;99359.41;178625;1262;58533;-88
2023/07/02 13:57:29;;;;;;;1.70;1.50;;;;;;;25.26;55.50;99364.56;178515;1257;46028;-89
2023/07/02 14:01:34;;;;;;;2.00;1.20;;;;;;;25.32;55.49;99370.27;178597;1256;46038;-88
2023/07/02 14:05:38;;;;;;;7.20;1.80;;;;;;;25.52;55.01;99369.68;178755;1256;46034;-88
2023/07/02 14:09:42;;;;;;;2.30;1.60;;;;;;;25.66;55.02;99365.13;178865;1256;46109;-88
2023/07/02 14:13:46;;;;;;;2.00;1.30;;;;;;;25.81;55.37;99356.42;179056;1257;58411;-88
2023/07/02 14:17:50;;;;;;;5.80;1.90;;;;;;;25.85;54.55;99354.74;179663;1258;43978;-88
2023/07/02 14:21:54;;;;;;;2.00;1.00;;;;;;;25.85;54.07;99355.39;180679;1257;45977;-88
2023/07/02 14:25:57;;;;;;;5.30;1.40;;;;;;;25.96;55.97;99354.51;180250;1257;44859;-88
2023/07/02 14:30:03;;;;;;;3.10;1.90;;;;;;;25.93;53.89;99353.83;180602;1257;44065;-88
2023/07/02 14:34:07;;;;;;;2.00;1.70;;;;;;;25.89;53.03;99352.34;180181;1256;59223;-89
2023/07/02 14:38:11;;;;;;;5.00;2.00;;;;;;;25.82;55.09;99353.02;179645;1257;45903;-88
2023/07/02 14:42:14;;;;;;;3.00;2.10;;;;;;;25.83;54.25;99349.00;179544;1257;44685;-87
2023/07/02 14:46:18;;;;;;;1.90;1.50;;;;;;;25.66;54.72;99351.80;179645;1257;46105;-88
2023/07/02 14:50:24;;;;;;;4.10;1.60;;;;;;;25.69;55.87;99355.11;180423;1260;86839;-60
2023/07/02 14:54:28;;;;;;;6.00;2.40;;;;;;;25.79;54.61;99348.88;180513;1258;59768;-59
2023/07/02 14:58:32;;;;;;;2.40;1.50;;;;;;;25.89;54.32;99351.73;180580;1259;44353;-59
2023/07/02 15:02:35;;;;;;;4.20;1.60;;;;;;;25.92;54.42;99347.27;180431;1258;45015;-60
2023/07/02 15:06:40;;;;;;;1.30;1.20;;;;;;;25.96;55.21;99352.13;180549;1259;45888;-59
2023/07/02 15:10:54;;;;;;;2.00;1.40;;;;;;;26.04;54.79;99349.23;180530;1259;43585;-60
2023/07/02 15:15:17;;;;;;;2.90;1.40;;;;;;;26.11;55.01;99351.08;180545;1258;58520;-59
2023/07/02 15:19:36;;;;;;;9.40;2.00;;;;;;;26.13;54.60;99352.25;180654;1259;46134;-59
2023/07/02 15:24:10;;;;;;;2.30;1.60;;;;;;;25.98;54.38;99347.15;180584;1259;43540;-59
2023/07/02 15:28:35;;;;;;;1.80;1.60;;;;;;;26.02;54.85;99343.36;180598;1259;44666;-60
2023/07/02 15:33:18;;;;;;;1.70;1.60;;;;;;;26.08;56.06;99341.77;180559;1259;43789;-59
2023/07/02 15:37:47;;;;;;;1.40;1.30;;;;;;;26.05;55.69;99342.70;180553;1259;58562;-60
2023/07/02 15:42:00;;;;;;;1.60;1.20;;;;;;;26.09;54.74;99345.69;180568;1259;43589;-59
2023/07/02 15:46:30;;;;;;;1.70;1.60;;;;;;;26.09;54.45;99351.70;180516;1258;43650;-59
2023/07/02 15:50:44;;;;;;;2.90;1.50;;;;;;;25.76;55.46;99357.11;180683;1258;43796;-60
2023/07/02 15:59:28;;;;;;;1.70;1.30;;;;;;;25.22;58.17;99362.55;174845;1290;567417;-84
2023/07/02 16:03:34;;;;;;;3.60;2.00;;;;;;;24.88;57.79;99361.11;178595;1264;58250;-89
2023/07/02 16:07:58;;;;;;;2.80;1.40;;;;;;;24.49;58.72;99367.25;178577;1265;46538;-87
2023/07/02 16:12:14;;;;;;;2.00;1.50;;;;;;;24.22;60.73;99368.95;176119;1253;4221874;-84
2023/07/02 16:16:25;;;;;;;3.00;2.80;;;;;;;24.04;61.81;99370.74;179718;1253;46010;-87
2023/07/02 16:20:42;;;;;;;3.40;1.90;;;;;;;23.94;61.92;99374.58;179881;1253;45974;-89
2023/07/02 16:24:54;;;;;;;2.10;1.90;;;;;;;23.85;62.65;99380.17;179940;1253;46033;-86
2023/07/02 16:29:22;;;;;;;3.40;2.00;;;;;;;23.72;63.47;99385.62;180533;1253;45996;-90
2023/07/02 16:33:41;;;;;;;2.90;1.80;;;;;;;23.75;63.53;99394.11;179850;1256;58304;-88
2023/07/02 16:37:47;;;;;;;3.20;2.00;;;;;;;24.06;63.03;99387.73;179864;1253;44690;-90
2023/07/02 16:41:54;;;;;;;4.00;2.40;;;;;;;24.41;62.23;99397.41;180495;1253;45999;-90
2023/07/02 16:46:13;;;;;;;3.10;1.90;;;;;;;24.45;60.35;99395.75;179868;1258;44858;-87
2023/07/02 16:50:34;;;;;;;5.20;2.40;;;;;;;24.47;61.19;99395.84;179208;1256;46052;-88
2023/07/02 16:54:51;;;;;;;2.70;2.20;;;;;;;24.38;61.66;99399.41;179464;1256;58107;-87
2023/07/02 16:59:27;;;;;;;3.00;2.30;;;;;;;24.17;62.32;99399.88;178585;1258;45874;-89
2023/07/02 17:03:38;;;;;;;3.90;2.60;;;;;;;23.98;63.22;99405.46;179916;1250;45929;-89
2023/07/02 17:08:02;;;;;;;3.20;2.30;;;;;;;23.75;64.61;99408.65;179580;1250;46041;-87
2023/07/02 17:12:18;;;;;;;2.40;2.20;;;;;;;23.63;65.86;99414.14;179357;1250;45258;-87
2023/07/02 17:16:34;;;;;;;4.60;2.50;;;;;;;23.60;67.86;99414.15;179886;1251;59204;-87
2023/07/02 17:20:40;;;;;;;2.30;2.10;;;;;;;23.73;68.40;99422.55;179799;1250;45235;-88
2023/07/02 17:24:54;;;;;;;3.80;2.70;;;;;;;23.76;67.98;99417.90;179597;1250;45975;-90
2023/07/02 17:29:00;;;;;;;11.70;3.30;;;;;;;23.77;67.94;99419.64;180078;1250;46088;-87
2023/07/02 17:33:15;;;;;;;2.50;2.30;;;;;;;23.80;68.94;99418.88;180120;1250;47065;-86
2023/07/02 17:37:25;;;;;;;3.70;2.50;;;;;;;23.73;68.33;99415.98;180070;1250;57022;-89
2023/07/02 17:42:04;;;;;;;4.10;2.70;;;;;;;23.65;68.62;99417.74;179952;1250;44593;-88
2023/07/02 17:50:29;;;;;;;5.60;2.70;;;;;;;23.38;70.03;99431.14;158238;1254;45056;-60
2023/07/02 17:55:06;;;;;;;4.40;2.70;;;;;;;23.27;70.70;99435.11;181185;1254;45261;-60
2023/07/02 17:59:19;;;;;;;5.90;2.50;;;;;;;23.16;70.45;99435.27;181173;1254;59831;-60
2023/07/02 18:03:45;;;;;;;4.20;3.40;;;;;;;23.00;71.36;99437.98;181152;1254;43715;-59
2023/07/02 18:07:57;;;;;;;4.60;3.70;;;;;;;22.85;72.71;99444.84;180867;1253;43678;-60
2023/07/02 18:12:28;;;;;;;2.60;2.40;;;;;;;22.77;74.36;99448.61;180844;1254;45917;-61
2023/07/02 18:16:39;;;;;;;4.40;3.40;;;;;;;22.71;74.57;99453.44;180875;1253;43981;-60
2023/07/02 18:21:16;;;;;;;4.50;3.60;;;;;;;22.55;75.16;99464.08;180905;1254;58223;-59
2023/07/02 18:25:25;;;;;;;8.70;4.30;;;;;;;22.24;76.70;99466.23;181115;1254;43662;-60
2023/07/02 18:30:09;;;;;;;7.10;4.30;;;;;;;22.03;76.62;99473.13;181187;1254;43783;-60
2023/07/02 18:34:46;;;;;;;6.60;5.30;;;;;;;21.91;77.13;99482.92;181356;1253;100946;-65
2023/07/02 18:38:50;;;;;;;7.50;3.90;;;;;;;21.69;79.70;99490.83;178476;1257;44015;-89
2023/07/02 18:42:54;;;;;;;7.10;4.60;;;;;;;21.45;80.17;99494.41;178974;1256;60436;-89
2023/07/02 18:46:58;;;;;;;9.60;4.50;;;;;;;21.35;81.01;99494.16;179334;1257;46222;-90
2023/07/02 18:51:06;;;;;;;6.90;3.90;;;;;;;21.28;82.00;99498.23;178619;1257;46111;-90
2023/07/02 18:55:12;;;;;;;5.70;4.30;;;;;;;21.12;82.28;99503.68;178635;1256;46056;-90
2023/07/02 18:59:19;;;;;;;10.90;4.00;;;;;;;20.97;81.93;99511.77;178434;1260;46098;-90
2023/07/02 19:03:24;;;;;;;9.50;4.70;;;;;;;20.86;82.17;99512.05;178395;1257;59607;-89
2023/07/02 19:07:29;;;;;;;7.80;4.60;;;;;;;20.73;82.46;99517.34;178249;1257;46108;-90
2023/07/02 19:11:34;;;;;;;8.90;5.20;;;;;;;20.48;83.67;99526.73;178663;1256;46057;-90
2023/07/02 19:15:39;;;;;;;6.90;4.30;;;;;;;20.30;84.40;99531.81;178342;1257;46102;-90
2023/07/02 19:19:45;;;;;;;11.40;5.20;;;;;;;20.20;85.79;99537.80;178445;1257;46015;-90
2023/07/02 19:23:52;;;;;;;10.60;5.20;;;;;;;20.17;85.80;99543.98;178996;1260;59179;-91
2023/07/02 19:27:57;;;;;;;8.30;3.90;;;;;;;20.10;86.08;99547.05;179167;1260;46020;-91